Time;durP1;ratioP1;P1;durP2;ratioP2;P2;SDS_P1;SDS_P2;PMS_P1;PMS_P2;Temp;Humidity;BMP_temperature;BMP_pressure;BME280_temperature;BME280_humidity;BME280_pressure;Samples;Min_cycle;Max_cycle;Signal;HPM_P1;HPM_P2
2023/10/12 00:00:24;;;;;;;14.27;4.87;;;;;;;13.46;100.00;100294.78;4981492;28;20203;-67
2023/10/12 00:02:54;;;;;;;13.47;5.43;;;;;;;13.62;100.00;100297.47;4989851;28;23008;-69
2023/10/12 00:05:21;;;;;;;11.20;4.97;;;;;;;13.59;100.00;100302.75;4978425;28;20221;-67
2023/10/12 00:07:49;;;;;;;15.13;5.30;;;;;;;13.51;100.00;100297.44;4983490;28;20292;-68
2023/10/12 00:12:44;;;;;;;9.33;5.10;;;;;;;13.34;100.00;100294.78;4980551;28;20236;-67
2023/10/12 00:15:23;;;;;;;13.30;4.93;;;;;;;13.32;100.00;100301.00;4984935;28;20279;-68
2023/10/12 00:17:52;;;;;;;13.40;5.67;;;;;;;13.23;100.00;100309.88;4989984;28;20646;-67
2023/10/12 00:20:34;;;;;;;12.03;5.10;;;;;;;13.23;100.00;100301.88;4990451;28;20254;-68
2023/10/12 00:23:09;;;;;;;11.50;5.10;;;;;;;13.11;100.00;100299.16;4981522;28;20583;-67
2023/10/12 00:25:45;;;;;;;8.87;4.67;;;;;;;13.09;100.00;100295.59;4982336;28;20302;-67
2023/10/12 00:28:17;;;;;;;12.50;4.67;;;;;;;13.09;100.00;100285.84;4984782;28;20201;-68
2023/10/12 00:30:54;;;;;;;9.53;4.87;;;;;;;13.10;100.00;100292.06;4990074;28;20217;-67
2023/10/12 00:33:23;;;;;;;10.80;5.13;;;;;;;13.03;100.00;100274.34;4978906;28;20439;-67
2023/10/12 00:35:52;;;;;;;9.73;4.87;;;;;;;13.16;100.00;100279.66;4978241;28;20223;-67
2023/10/12 00:38:23;;;;;;;11.97;5.00;;;;;;;13.16;100.00;100276.09;4979804;28;20197;-67
2023/10/12 00:40:55;;;;;;;14.40;5.23;;;;;;;13.34;100.00;100285.94;4989760;28;20566;-67
2023/10/12 00:43:21;;;;;;;10.57;4.87;;;;;;;13.30;100.00;100269.09;4980618;28;20211;-69
2023/10/12 00:45:49;;;;;;;11.47;4.87;;;;;;;13.31;100.00;100283.28;4984044;28;20325;-69
2023/10/12 00:48:19;;;;;;;15.30;5.17;;;;;;;13.36;100.00;100274.41;4986256;28;20205;-68
2023/10/12 00:50:46;;;;;;;9.63;4.27;;;;;;;13.44;100.00;100282.38;4983106;28;20789;-68
2023/10/12 00:53:22;;;;;;;11.27;4.70;;;;;;;13.35;100.00;100282.38;4983776;28;20201;-68
2023/10/12 00:55:50;;;;;;;12.60;5.00;;;;;;;13.28;100.00;100277.94;4984511;28;20224;-68
2023/10/12 00:58:17;;;;;;;13.70;4.83;;;;;;;13.23;100.00;100277.06;4981168;28;20205;-68
2023/10/12 01:00:46;;;;;;;12.63;4.73;;;;;;;13.19;100.00;100276.16;4977961;28;20201;-68
2023/10/12 01:03:31;;;;;;;10.70;4.83;;;;;;;13.15;100.00;100269.00;4986274;28;20211;-67
2023/10/12 01:06:20;;;;;;;10.17;4.67;;;;;;;13.06;100.00;100275.22;4977131;28;20221;-67
2023/10/12 01:08:47;;;;;;;9.80;4.50;;;;;;;13.03;100.00;100279.66;4985465;28;20235;-67
2023/10/12 01:11:36;;;;;;;10.57;4.70;;;;;;;13.00;100.00;100275.22;4980946;28;20221;-67
2023/10/12 01:16:43;;;;;;;8.93;4.70;;;;;;;12.76;100.00;100264.50;4985111;28;20626;-69
2023/10/12 01:19:10;;;;;;;9.93;4.40;;;;;;;12.76;100.00;100267.19;4979615;28;20200;-68
2023/10/12 01:21:36;;;;;;;11.20;4.70;;;;;;;12.85;100.00;100267.22;4980484;28;20637;-67
2023/10/12 01:24:11;;;;;;;9.17;4.40;;;;;;;12.79;100.00;100273.38;4985784;28;20207;-68
2023/10/12 01:26:38;;;;;;;9.60;4.33;;;;;;;12.83;100.00;100272.53;4985152;28;20591;-69
2023/10/12 01:29:10;;;;;;;11.37;4.67;;;;;;;12.91;100.00;100272.53;4982932;28;20231;-69
2023/10/12 01:31:37;;;;;;;13.03;4.90;;;;;;;13.00;100.00;100275.22;4980671;28;20228;-67
2023/10/12 01:34:03;;;;;;;10.00;4.80;;;;;;;13.01;100.00;100268.13;4984191;28;20209;-69
2023/10/12 01:36:30;;;;;;;10.33;4.20;;;;;;;13.06;100.00;100263.69;4980367;28;20205;-68
2023/10/12 01:39:11;;;;;;;8.93;4.60;;;;;;;13.04;100.00;100255.72;4980034;28;20200;-67
2023/10/12 01:41:41;;;;;;;7.80;4.37;;;;;;;13.04;100.00;100253.06;4990595;28;20209;-68
2023/10/12 01:44:11;;;;;;;9.87;4.53;;;;;;;13.01;100.00;100258.38;4983048;28;20201;-67
2023/10/12 01:46:41;;;;;;;13.83;4.77;;;;;;;12.97;100.00;100250.41;4985234;28;20205;-67
2023/10/12 01:49:09;;;;;;;10.30;4.90;;;;;;;12.96;100.00;100264.56;4988178;28;20588;-68
2023/10/12 01:51:36;;;;;;;9.53;4.17;;;;;;;12.88;100.00;100255.72;4979850;28;20231;-67
2023/10/12 01:54:05;;;;;;;13.00;5.10;;;;;;;12.84;100.00;100242.41;4987196;28;20207;-67
2023/10/12 01:56:35;;;;;;;9.47;4.33;;;;;;;12.81;100.00;100255.69;4979923;28;20206;-67
2023/10/12 01:59:06;;;;;;;7.47;3.90;;;;;;;12.80;100.00;100251.25;4982521;28;20201;-67
2023/10/12 02:01:33;;;;;;;9.47;4.60;;;;;;;12.98;100.00;100250.41;4983747;28;20217;-67
2023/10/12 02:04:03;;;;;;;8.83;4.57;;;;;;;12.86;100.00;100256.59;4982665;28;20665;-68
2023/10/12 02:06:29;;;;;;;10.87;4.33;;;;;;;12.88;100.00;100267.22;4989615;28;20236;-67
2023/10/12 02:09:08;;;;;;;8.73;4.00;;;;;;;12.77;100.00;100253.88;4987486;28;20293;-70
2023/10/12 02:11:53;;;;;;;8.60;4.27;;;;;;;12.82;100.00;100262.78;4991032;28;20701;-67
2023/10/12 02:17:16;;;;;;;10.53;4.77;;;;;;;13.00;100.00;100282.31;4984308;28;20216;-67
2023/10/12 02:19:42;;;;;;;8.53;4.53;;;;;;;12.98;100.00;100274.31;4977766;28;20205;-67
2023/10/12 02:22:23;;;;;;;9.47;4.27;;;;;;;13.00;100.00;100279.66;4983572;28;20252;-67
2023/10/12 02:27:36;;;;;;;12.10;4.80;;;;;;;12.82;100.00;100292.03;4988993;28;20593;-68
2023/10/12 02:30:06;;;;;;;10.70;4.63;;;;;;;12.79;100.00;100296.41;4983012;28;20653;-67
2023/10/12 02:32:46;;;;;;;9.13;4.83;;;;;;;12.76;100.00;100301.72;4983291;28;20224;-68
2023/10/12 02:35:15;;;;;;;9.50;4.77;;;;;;;12.77;100.00;100293.75;4981303;28;20235;-68
2023/10/12 02:37:42;;;;;;;11.03;5.07;;;;;;;12.79;100.00;100297.28;4981776;28;20216;-67
2023/10/12 02:40:09;;;;;;;9.60;4.27;;;;;;;12.85;100.00;100299.13;4981861;28;20201;-70
2023/10/12 02:42:38;;;;;;;8.60;4.40;;;;;;;12.90;100.00;100291.16;4979923;28;20579;-67
2023/10/12 02:45:16;;;;;;;7.40;4.30;;;;;;;13.00;100.00;100288.50;4983168;28;20243;-67
2023/10/12 02:47:45;;;;;;;10.00;5.43;;;;;;;13.02;100.00;100278.75;4987457;28;20209;-67
2023/10/12 02:52:43;;;;;;;11.97;4.80;;;;;;;13.17;100.00;100297.41;4989322;28;20231;-68
2023/10/12 03:00:35;;;;;;;10.60;4.53;;;;;;;13.25;100.00;100264.66;4986218;28;20209;-68
2023/10/12 03:03:19;;;;;;;9.03;4.30;;;;;;;13.24;100.00;100257.56;4992043;28;20232;-67
2023/10/12 03:05:47;;;;;;;11.47;5.00;;;;;;;13.36;100.00;100273.50;4987470;28;20727;-67
2023/10/12 03:08:14;;;;;;;11.37;4.70;;;;;;;13.30;100.00;100282.38;4985966;28;20205;-68
2023/10/12 03:11:00;;;;;;;8.23;4.50;;;;;;;13.27;100.00;100277.06;4977059;28;20674;-67
2023/10/12 03:13:34;;;;;;;11.57;5.00;;;;;;;13.28;100.00;100288.59;4980905;28;20217;-67
2023/10/12 03:16:14;;;;;;;9.03;4.20;;;;;;;13.39;100.00;100308.97;4979823;28;20311;-67
2023/10/12 03:18:42;;;;;;;13.33;4.87;;;;;;;13.56;100.00;100313.41;4989100;28;20283;-67
2023/10/12 03:21:12;;;;;;;11.60;4.93;;;;;;;13.70;100.00;100323.19;4990721;28;20681;-67
2023/10/12 03:23:39;;;;;;;11.90;4.97;;;;;;;13.68;100.00;100321.41;4980859;28;20208;-67
2023/10/12 03:26:48;;;;;;;11.67;4.90;;;;;;;13.67;100.00;100316.97;4981964;28;20225;-70
2023/10/12 03:37:03;;;;;;;6.43;4.10;;;;;;;13.68;100.00;100318.75;4986964;28;20289;-67
2023/10/12 03:39:33;;;;;;;19.07;5.80;;;;;;;13.64;100.00;100316.97;4983707;28;20209;-68
2023/10/12 03:42:11;;;;;;;11.80;4.80;;;;;;;13.63;100.00;100326.75;4978375;28;20201;-67
2023/10/12 03:52:27;;;;;;;8.03;4.50;;;;;;;13.54;100.00;100325.81;4979662;28;20661;-73
2023/10/12 04:02:58;;;;;;;8.27;4.43;;;;;;;13.65;100.00;100316.97;4970874;28;20677;-74
2023/10/12 04:05:46;;;;;;;13.90;5.23;;;;;;;13.79;100.00;100324.94;4970787;28;20690;-73
2023/10/12 04:08:51;;;;;;;13.23;4.93;;;;;;;13.86;100.00;100312.50;4968381;28;20208;-74
2023/10/12 04:11:47;;;;;;;12.80;5.23;;;;;;;13.93;100.00;100336.47;4967666;28;20228;-74
2023/10/12 04:14:17;;;;;;;15.47;4.93;;;;;;;13.97;100.00;100337.34;4967340;28;20550;-73
2023/10/12 04:16:45;;;;;;;8.57;4.90;;;;;;;13.92;100.00;100339.13;4970688;28;20692;-74
2023/10/12 04:19:26;;;;;;;12.07;4.87;;;;;;;13.91;100.00;100324.91;4965714;28;20220;-74
2023/10/12 04:22:05;;;;;;;8.17;4.70;;;;;;;13.98;100.00;100341.78;4970586;28;20585;-74
2023/10/12 04:24:42;;;;;;;7.63;4.50;;;;;;;13.95;100.00;100334.69;4969517;28;20256;-75
2023/10/12 04:27:24;;;;;;;12.53;4.87;;;;;;;14.00;100.00;100353.31;4964719;28;20210;-74
2023/10/12 04:29:56;;;;;;;13.07;5.03;;;;;;;14.04;100.00;100349.78;4969265;28;20781;-74
2023/10/12 04:38:27;;;;;;;10.27;4.70;;;;;;;14.27;100.00;100347.06;4966235;28;20212;-74
2023/10/12 04:43:39;;;;;;;10.43;4.50;;;;;;;14.29;100.00;100351.50;4965580;28;20625;-74
2023/10/12 04:48:41;;;;;;;10.40;4.77;;;;;;;14.31;100.00;100338.16;4970196;28;20202;-73
2023/10/12 04:51:08;;;;;;;7.60;4.13;;;;;;;14.27;100.00;100337.28;4969885;28;20604;-74
2023/10/12 04:56:23;;;;;;;10.63;4.50;;;;;;;14.33;100.00;100347.91;4967871;28;20295;-74
2023/10/12 04:58:56;;;;;;;9.90;4.50;;;;;;;14.31;100.00;100355.03;4969879;28;20680;-74
2023/10/12 05:01:29;;;;;;;13.67;5.20;;;;;;;14.29;100.00;100342.59;4969914;28;20765;-74
2023/10/12 05:04:09;;;;;;;9.17;4.27;;;;;;;14.25;100.00;100349.72;4967367;28;20237;-74
2023/10/12 05:09:26;;;;;;;8.97;4.77;;;;;;;14.22;100.00;100338.19;4976053;28;20205;-74
2023/10/12 05:11:53;;;;;;;9.07;4.47;;;;;;;14.22;100.00;100352.41;4972734;28;20757;-73
2023/10/12 05:14:19;;;;;;;13.17;4.97;;;;;;;14.25;100.00;100365.72;4969322;28;20197;-73
2023/10/12 05:16:47;;;;;;;9.87;4.73;;;;;;;14.26;100.00;100359.50;4970195;28;20225;-73
2023/10/12 05:19:13;;;;;;;9.87;4.63;;;;;;;14.27;100.00;100347.06;4970109;28;20210;-73
2023/10/12 05:21:40;;;;;;;10.23;4.80;;;;;;;14.26;100.00;100335.50;4968363;28;20232;-74
2023/10/12 05:24:08;;;;;;;8.13;4.30;;;;;;;14.26;100.00;100330.19;4970056;28;20201;-73
2023/10/12 05:26:36;;;;;;;9.93;5.10;;;;;;;14.30;100.00;100342.59;4970790;28;20260;-73
2023/10/12 05:29:34;;;;;;;13.80;4.83;;;;;;;14.41;100.00;100356.81;4961864;28;20228;-75
2023/10/12 05:32:13;;;;;;;12.03;4.43;;;;;;;14.37;100.00;100362.13;4969894;28;20260;-74
2023/10/12 05:39:50;;;;;;;19.20;6.57;;;;;;;14.50;100.00;100315.94;4969673;28;20609;-74
2023/10/12 05:42:19;;;;;;;15.83;6.00;;;;;;;14.80;100.00;100362.00;4969985;28;20217;-73
2023/10/12 05:44:50;;;;;;;13.33;5.57;;;;;;;14.79;100.00;100373.56;4968374;28;20236;-74
2023/10/12 05:47:18;;;;;;;11.73;5.10;;;;;;;14.83;100.00;100380.69;4967550;28;20206;-74
2023/10/12 05:49:50;;;;;;;13.37;5.50;;;;;;;14.83;100.00;100386.91;4966717;28;20670;-74
2023/10/12 05:52:17;;;;;;;12.70;5.90;;;;;;;14.75;100.00;100375.34;4970027;28;20648;-74
2023/10/12 05:54:43;;;;;;;15.87;5.93;;;;;;;14.78;100.00;100393.13;4972998;28;20225;-72
2023/10/12 05:57:19;;;;;;;14.57;6.93;;;;;;;14.83;100.00;100428.69;4969833;28;20202;-72
2023/10/12 05:59:46;;;;;;;15.27;6.40;;;;;;;14.76;100.00;100434.91;4972956;28;20198;-74
2023/10/12 06:02:17;;;;;;;16.80;6.20;;;;;;;14.63;100.00;100418.94;4973149;28;20581;-73
2023/10/12 06:04:44;;;;;;;18.63;6.40;;;;;;;14.67;100.00;100436.72;4971443;28;20708;-73
2023/10/12 06:07:11;;;;;;;12.80;7.30;;;;;;;14.55;100.00;100441.19;4973287;28;20205;-72
2023/10/12 06:09:37;;;;;;;14.87;6.53;;;;;;;14.47;100.00;100461.63;4972967;28;20237;-73
2023/10/12 06:12:09;;;;;;;13.27;6.60;;;;;;;14.41;100.00;100473.16;4968934;28;20225;-73
2023/10/12 06:14:38;;;;;;;14.10;6.50;;;;;;;14.33;100.00;100469.59;4972687;28;20214;-72
2023/10/12 06:17:05;;;;;;;13.23;6.50;;;;;;;14.35;100.00;100468.69;4973256;28;20213;-73
2023/10/12 06:19:36;;;;;;;12.47;6.57;;;;;;;14.31;100.00;100466.03;4971989;28;20237;-72
2023/10/12 06:22:20;;;;;;;13.53;6.07;;;;;;;14.33;100.00;100458.94;4972520;28;20301;-73
2023/10/12 06:24:49;;;;;;;14.77;6.07;;;;;;;14.35;100.00;100444.72;4972502;28;20312;-73
2023/10/12 06:29:55;;;;;;;16.50;6.00;;;;;;;14.49;100.00;100468.75;4968509;28;20208;-73
2023/10/12 06:32:32;;;;;;;11.63;5.80;;;;;;;14.56;100.00;100474.94;4972688;28;20217;-73
2023/10/12 06:38:15;;;;;;;14.13;6.00;;;;;;;14.72;100.00;100472.22;4969711;28;20206;-74
2023/10/12 06:45:49;;;;;;;12.37;5.83;;;;;;;14.99;100.00;100481.94;4972340;28;20535;-74
2023/10/12 06:51:11;;;;;;;16.33;7.03;;;;;;;15.14;100.00;100488.13;4972141;28;20574;-74
2023/10/12 06:53:40;;;;;;;17.97;6.50;;;;;;;15.27;100.00;100501.44;4971269;28;20300;-74
2023/10/12 06:58:43;;;;;;;15.50;6.30;;;;;;;15.45;100.00;100481.75;4971858;28;20237;-73
2023/10/12 07:01:18;;;;;;;17.47;6.53;;;;;;;15.54;100.00;100473.69;4972110;28;20202;-73
2023/10/12 07:03:49;;;;;;;15.57;6.07;;;;;;;15.60;100.00;100451.44;4971424;28;20209;-73
2023/10/12 07:06:16;;;;;;;19.43;6.97;;;;;;;15.61;100.00;100456.81;4969154;28;20559;-73
2023/10/12 07:08:46;;;;;;;17.77;6.13;;;;;;;15.65;100.00;100477.25;4971283;28;20297;-73
2023/10/12 07:11:14;;;;;;;11.93;5.43;;;;;;;15.68;100.00;100499.50;4971926;28;20201;-73
2023/10/12 07:13:45;;;;;;;15.53;6.37;;;;;;;15.64;100.00;100496.84;4972115;28;20229;-73
2023/10/12 07:16:16;;;;;;;16.33;6.60;;;;;;;15.68;100.00;100491.47;4966513;28;20232;-73
2023/10/12 07:18:43;;;;;;;16.90;6.27;;;;;;;15.68;100.00;100486.13;4965270;28;20237;-73
2023/10/12 07:21:23;;;;;;;13.77;6.20;;;;;;;15.74;100.00;100481.66;4970147;28;20662;-73
2023/10/12 07:23:53;;;;;;;13.33;5.60;;;;;;;15.75;100.00;100477.19;4969760;28;20236;-73
2023/10/12 07:26:23;;;;;;;10.37;5.97;;;;;;;15.84;100.00;100496.72;4965493;28;20757;-73
2023/10/12 07:28:50;;;;;;;18.80;6.40;;;;;;;15.85;100.00;100505.59;4971322;28;20197;-74
2023/10/12 07:33:52;;;;;;;14.93;6.33;;;;;;;15.87;100.00;100485.13;4970914;28;20257;-73
2023/10/12 07:36:25;;;;;;;16.40;5.57;;;;;;;15.90;100.00;100472.63;4971518;28;20242;-73
2023/10/12 07:39:14;;;;;;;16.90;5.67;;;;;;;15.96;100.00;100459.22;4971026;28;20201;-73
2023/10/12 07:41:41;;;;;;;14.10;6.93;;;;;;;16.10;100.00;100455.56;4967092;28;20292;-73
2023/10/12 07:44:10;;;;;;;16.80;6.43;;;;;;;16.14;100.00;100490.28;4965050;28;20658;-73
2023/10/12 07:46:37;;;;;;;18.03;6.43;;;;;;;16.29;100.00;100500.81;4971745;28;20881;-73
2023/10/12 07:52:23;;;;;;;11.83;5.50;;;;;;;16.42;100.00;100495.41;4970063;28;20217;-73
2023/10/12 07:54:48;;;;;;;13.33;6.23;;;;;;;16.52;100.00;100502.44;4968906;28;20267;-73
2023/10/12 07:57:15;;;;;;;17.10;6.80;;;;;;;16.56;100.00;100478.31;4965863;28;20212;-73
2023/10/12 07:59:54;;;;;;;14.20;6.60;;;;;;;16.60;100.00;100479.16;4969196;28;20205;-73
2023/10/12 08:05:24;;;;;;;18.03;6.53;;;;;;;16.73;100.00;100479.97;4970651;28;20316;-73
2023/10/12 08:07:59;;;;;;;18.73;6.70;;;;;;;16.76;100.00;100507.56;4967308;28;20220;-73
2023/10/12 08:13:25;;;;;;;15.97;6.53;;;;;;;16.85;100.00;100486.09;4971744;28;20221;-72
2023/10/12 08:15:56;;;;;;;13.60;6.33;;;;;;;16.86;100.00;100519.97;4970103;28;20311;-73
2023/10/12 08:24:01;;;;;;;24.67;7.40;;;;;;;16.85;100.00;100509.28;4970254;28;20206;-72
2023/10/12 08:29:17;;;;;;;15.90;5.90;;;;;;;16.65;100.00;100562.91;4970580;28;20228;-72
2023/10/12 08:31:44;;;;;;;12.93;5.73;;;;;;;16.52;100.00;100546.09;4970269;28;20256;-72
2023/10/12 08:34:41;;;;;;;18.23;8.03;;;;;;;16.34;100.00;100548.91;4968637;28;20217;-72
2023/10/12 08:39:49;;;;;;;13.83;6.73;;;;;;;16.07;100.00;100557.13;4970675;28;20217;-72
2023/10/12 08:42:55;;;;;;;14.97;7.17;;;;;;;15.98;100.00;100558.03;4965416;28;20197;-72
2023/10/12 08:45:16;;;;;;;14.97;7.20;;;;;;;15.88;100.00;100549.19;4967787;28;20232;-72
2023/10/12 08:47:49;;;;;;;20.67;7.20;;;;;;;15.79;100.00;100551.94;4970818;28;20205;-72
2023/10/12 08:52:50;;;;;;;17.87;6.53;;;;;;;15.82;100.00;100559.03;4970445;28;20227;-72
2023/10/12 08:55:19;;;;;;;13.30;7.13;;;;;;;15.83;100.00;100555.47;4966242;28;20225;-72
2023/10/12 08:58:18;;;;;;;13.70;7.13;;;;;;;15.84;100.00;100558.13;4970420;28;20205;-72
2023/10/12 09:00:45;;;;;;;15.93;6.40;;;;;;;15.77;100.00;100545.72;4969011;28;20216;-72
2023/10/12 09:05:51;;;;;;;12.83;6.20;;;;;;;15.81;100.00;100551.91;4968484;28;20280;-72
2023/10/12 09:13:28;;;;;;;16.90;7.00;;;;;;;15.94;100.00;100549.16;4971270;28;20256;-72
2023/10/12 09:15:58;;;;;;;16.50;7.87;;;;;;;16.01;100.00;100543.78;4969711;28;20581;-73
2023/10/12 09:18:44;;;;;;;13.50;6.17;;;;;;;16.05;100.00;100542.88;4970297;28;20227;-73
2023/10/12 09:23:47;;;;;;;14.67;6.37;;;;;;;16.18;100.00;100537.44;4970233;28;20717;-72
2023/10/12 09:26:19;;;;;;;13.30;6.80;;;;;;;16.21;100.00;100536.53;4963556;28;20252;-72
2023/10/12 09:36:45;;;;;;;15.53;7.33;;;;;;;16.63;100.00;100539.75;4969040;28;20706;-72
2023/10/12 09:39:15;;;;;;;13.83;7.03;;;;;;;16.63;100.00;100534.41;4966679;28;20224;-72
2023/10/12 09:41:55;;;;;;;16.30;7.07;;;;;;;16.73;100.00;100534.34;4973750;28;20206;-72
2023/10/12 09:44:27;;;;;;;13.27;6.37;;;;;;;16.82;100.00;100544.09;4968007;28;20193;-72
2023/10/12 09:46:57;;;;;;;10.90;6.20;;;;;;;16.91;100.00;100542.19;4970905;28;20212;-70
2023/10/12 09:49:29;;;;;;;14.33;6.17;;;;;;;17.05;100.00;100541.16;4973932;28;20292;-72
2023/10/12 09:52:04;;;;;;;15.17;6.03;;;;;;;17.13;100.00;100536.59;4973754;28;20260;-70
2023/10/12 09:54:45;;;;;;;12.27;5.90;;;;;;;17.21;100.00;100545.44;4973695;28;20239;-70
2023/10/12 09:57:19;;;;;;;12.77;5.87;;;;;;;17.31;100.00;100539.09;4966660;28;20519;-71
2023/10/12 09:59:52;;;;;;;12.40;5.67;;;;;;;17.41;100.00;100532.72;4973110;28;20216;-70
2023/10/12 10:02:30;;;;;;;14.30;6.27;;;;;;;17.44;100.00;100526.44;4967120;28;20765;-71
2023/10/12 10:05:11;;;;;;;12.57;6.00;;;;;;;17.55;100.00;100527.19;4966040;28;20673;-70
2023/10/12 10:07:55;;;;;;;13.33;6.10;;;;;;;17.61;100.00;100527.13;4973431;28;20209;-70
2023/10/12 10:10:36;;;;;;;12.87;6.63;;;;;;;17.57;100.00;100527.16;4973525;28;20296;-70
2023/10/12 10:13:12;;;;;;;12.37;5.67;;;;;;;17.71;100.00;100535.94;4967129;28;20225;-71
2023/10/12 10:15:55;;;;;;;15.38;5.72;;;;;;;17.80;100.00;100534.03;4972985;28;20225;-70
2023/10/12 10:18:28;;;;;;;14.90;6.57;;;;;;;17.78;100.00;100534.97;4966839;28;20386;-70
2023/10/12 10:21:03;;;;;;;16.25;6.57;;;;;;;17.89;100.00;100540.16;4965555;28;20210;-70
2023/10/12 10:23:36;;;;;;;13.77;6.27;;;;;;;17.84;100.00;100535.75;4973287;28;20205;-71
2023/10/12 10:26:19;;;;;;;9.70;5.33;;;;;;;17.90;100.00;100536.56;4972719;28;20232;-70
2023/10/12 10:28:54;;;;;;;13.03;6.40;;;;;;;17.92;100.00;100543.69;4964367;28;20293;-70
2023/10/12 10:31:31;;;;;;;11.80;5.83;;;;;;;18.02;100.00;100545.34;4966541;28;20291;-71
2023/10/12 10:34:06;;;;;;;15.40;6.45;;;;;;;18.06;100.00;100540.81;4972670;28;20228;-70
2023/10/12 10:36:36;;;;;;;12.18;5.93;;;;;;;18.08;100.00;100541.69;4966532;28;20752;-70
2023/10/12 10:41:54;;;;;;;14.05;6.10;;;;;;;18.07;100.00;100540.81;4972416;28;20229;-70
2023/10/12 10:44:22;;;;;;;12.80;5.97;;;;;;;17.98;100.00;100540.91;4970829;28;20205;-71
2023/10/12 10:46:57;;;;;;;15.60;6.77;;;;;;;17.91;100.00;100546.38;4972160;28;20292;-70
2023/10/12 10:49:33;;;;;;;12.27;6.30;;;;;;;17.85;100.00;100545.56;4972414;28;20215;-71
2023/10/12 10:54:37;;;;;;;13.67;6.60;;;;;;;17.97;100.00;100543.59;4971029;28;20225;-71
2023/10/12 11:00:10;;;;;;;13.03;6.20;;;;;;;17.84;100.00;100543.78;4957720;28;20708;-70
2023/10/12 11:02:37;;;;;;;12.40;6.17;;;;;;;17.78;100.00;100557.28;4966010;28;20245;-70
2023/10/12 11:05:13;;;;;;;12.03;5.83;;;;;;;17.72;100.00;100559.16;4972059;28;20304;-70
2023/10/12 11:07:50;;;;;;;13.07;6.10;;;;;;;17.71;100.00;100560.06;4972146;28;20209;-70
2023/10/12 11:10:19;;;;;;;11.43;6.30;;;;;;;17.67;100.00;100561.00;4964434;28;20606;-70
2023/10/12 11:12:48;;;;;;;14.73;7.13;;;;;;;17.70;100.00;100544.91;4971258;28;20215;-72
2023/10/12 11:15:19;;;;;;;12.97;6.07;;;;;;;17.65;100.00;100549.41;4964040;28;20624;-69
2023/10/12 11:17:59;;;;;;;13.13;6.47;;;;;;;17.53;100.00;100535.22;4971839;28;20669;-70
2023/10/12 11:20:49;;;;;;;10.70;6.10;;;;;;;17.57;100.00;100527.16;4965334;28;20289;-70
2023/10/12 11:23:17;;;;;;;10.67;5.37;;;;;;;17.60;100.00;100524.44;4972053;28;20297;-70
2023/10/12 11:25:43;;;;;;;12.23;5.57;;;;;;;17.70;100.00;100524.34;4971763;28;20320;-70
2023/10/12 11:28:23;;;;;;;8.47;5.33;;;;;;;17.73;100.00;100504.66;4969759;28;20649;-70
2023/10/12 11:30:52;;;;;;;11.37;5.67;;;;;;;17.67;100.00;100494.94;4968096;28;20537;-71
2023/10/12 11:33:29;;;;;;;12.43;5.40;;;;;;;17.69;100.00;100493.13;4970476;28;20217;-71
2023/10/12 11:36:00;;;;;;;9.63;5.50;;;;;;;17.76;100.00;100493.91;4971590;28;20673;-70
2023/10/12 11:38:28;;;;;;;12.30;5.77;;;;;;;17.79;100.00;100501.91;4965336;28;20244;-70
2023/10/12 11:40:58;;;;;;;10.33;5.73;;;;;;;17.90;100.00;100507.09;4971058;28;20210;-70
2023/10/12 11:43:49;;;;;;;9.83;5.23;;;;;;;17.94;100.00;100506.13;4970847;28;20212;-70
2023/10/12 11:46:16;;;;;;;11.63;5.43;;;;;;;18.07;100.00;100497.91;4969553;28;20229;-70
2023/10/12 11:48:42;;;;;;;13.70;5.80;;;;;;;18.17;100.00;100496.84;4967135;28;20209;-71
2023/10/12 11:51:11;;;;;;;13.67;5.27;;;;;;;18.29;100.00;100492.19;4970795;28;20264;-70
2023/10/12 11:53:39;;;;;;;10.23;5.43;;;;;;;18.45;100.00;100483.00;4971814;28;20225;-70
2023/10/12 11:56:17;;;;;;;13.05;5.38;;;;;;;18.56;100.00;100486.38;4970447;28;20233;-70
2023/10/12 11:58:51;;;;;;;10.63;5.30;;;;;;;18.71;100.00;100493.28;4967532;28;20292;-70
2023/10/12 12:01:18;;;;;;;8.80;5.07;;;;;;;18.73;100.00;100483.41;4963889;28;20217;-70
2023/10/12 12:03:45;;;;;;;12.27;5.63;;;;;;;18.83;100.00;100484.16;4971436;28;20225;-71
2023/10/12 12:06:21;;;;;;;14.07;6.13;;;;;;;18.98;100.00;100475.78;4963296;28;20221;-70
2023/10/12 12:08:49;;;;;;;12.93;5.93;;;;;;;19.12;100.00;100470.13;4969700;28;20204;-70
2023/10/12 12:11:19;;;;;;;12.38;6.38;;;;;;;19.04;100.00;100471.19;4970818;28;20213;-70
2023/10/12 12:13:52;;;;;;;13.73;6.30;;;;;;;19.01;100.00;100467.66;4971338;28;20225;-70
2023/10/12 12:16:22;;;;;;;9.68;5.57;;;;;;;19.07;100.00;100471.13;4963841;28;20312;-70
2023/10/12 12:18:52;;;;;;;12.65;6.15;;;;;;;19.24;100.00;100469.91;4970911;28;20228;-70
2023/10/12 12:21:29;;;;;;;11.65;5.75;;;;;;;19.30;100.00;100465.28;4970824;28;20625;-71
2023/10/12 12:24:03;;;;;;;11.10;5.88;;;;;;;19.50;100.00;100472.00;4968402;28;20292;-71
2023/10/12 12:26:33;;;;;;;9.85;5.30;;;;;;;19.78;100.00;100458.88;4969707;28;20229;-71
2023/10/12 12:29:04;;;;;;;12.57;5.90;;;;;;;19.85;100.00;100457.81;4970491;28;20268;-70
2023/10/12 12:31:32;;;;;;;10.38;5.65;;;;;;;19.94;100.00;100454.91;4966778;28;20217;-71
2023/10/12 12:33:59;;;;;;;12.45;5.55;;;;;;;19.91;100.00;100446.91;4968743;28;20248;-71
2023/10/12 12:36:25;;;;;;;9.35;5.30;;;;;;;19.86;100.00;100459.59;4971125;28;20264;-71
2023/10/12 12:38:57;;;;;;;11.35;6.05;;;;;;;19.75;100.00;100453.59;4970374;28;20256;-71
2023/10/12 12:41:24;;;;;;;14.00;6.65;;;;;;;19.66;100.00;100449.31;4963451;28;20201;-71
2023/10/12 12:43:52;;;;;;;12.55;6.00;;;;;;;19.57;100.00;100441.44;4970741;28;20201;-72
2023/10/12 12:46:19;;;;;;;13.32;5.93;;;;;;;19.56;100.00;100436.97;4970223;28;20224;-70
2023/10/12 12:48:50;;;;;;;11.32;5.45;;;;;;;19.51;100.00;100426.31;4963883;28;20237;-71
2023/10/12 12:51:21;;;;;;;11.45;5.25;;;;;;;19.62;100.00;100437.75;4969809;28;20217;-70
2023/10/12 12:53:50;;;;;;;10.90;5.93;;;;;;;19.75;100.00;100426.72;4970437;28;20216;-70
2023/10/12 12:56:18;;;;;;;11.43;5.95;;;;;;;19.82;100.00;100436.41;4969186;28;20221;-71
2023/10/12 12:58:48;;;;;;;14.70;5.45;;;;;;;19.97;100.00;100420.78;4965775;28;20224;-71
2023/10/12 13:01:18;;;;;;;13.95;5.75;;;;;;;19.89;100.00;100416.50;4970544;28;20208;-70
2023/10/12 13:03:45;;;;;;;9.68;5.00;;;;;;;20.04;100.00;100413.47;4974616;28;20205;-70
2023/10/12 13:06:15;;;;;;;10.05;4.93;;;;;;;20.13;100.00;100415.03;4972689;28;20218;-71
2023/10/12 13:08:41;;;;;;;9.13;5.13;;;;;;;20.02;100.00;100418.88;4969169;28;20662;-70
2023/10/12 13:11:09;;;;;;;10.55;4.90;;;;;;;19.98;100.00;100417.16;4974033;28;20662;-71
2023/10/12 13:13:39;;;;;;;10.02;4.82;;;;;;;19.77;100.00;100425.75;4974351;28;20217;-70
2023/10/12 13:16:11;;;;;;;10.18;5.32;;;;;;;19.61;100.00;100419.88;4971437;28;20217;-71
2023/10/12 13:18:39;;;;;;;10.20;5.05;;;;;;;19.45;100.00;100418.41;4974181;28;20669;-71
2023/10/12 13:21:14;;;;;;;10.52;4.63;;;;;;;19.24;100.00;100430.50;4973551;28;20225;-71
2023/10/12 13:23:42;;;;;;;10.40;5.07;;;;;;;18.91;100.00;100447.31;4974006;28;20292;-71
2023/10/12 13:26:10;;;;;;;6.43;3.92;;;;;;;18.45;100.00;100427.56;4967682;28;20228;-70
2023/10/12 13:28:38;;;;;;;9.35;4.50;;;;;;;18.21;100.00;100436.03;4973680;28;20623;-70
2023/10/12 13:31:05;;;;;;;8.55;4.80;;;;;;;17.96;100.00;100435.53;4973695;28;20733;-70
2023/10/12 13:33:32;;;;;;;10.43;5.03;;;;;;;17.77;100.00;100443.00;4974085;28;20312;-70
2023/10/12 13:35:58;;;;;;;8.98;5.20;;;;;;;17.67;100.00;100435.13;4970956;28;20233;-71
2023/10/12 13:38:29;;;;;;;13.23;4.97;;;;;;;17.65;100.00;100437.78;4973397;28;20269;-70
2023/10/12 13:40:57;;;;;;;12.40;5.72;;;;;;;17.71;100.00;100439.53;4973665;28;20205;-70
2023/10/12 13:43:26;;;;;;;10.40;5.25;;;;;;;17.61;100.00;100444.09;4968798;28;20271;-70
2023/10/12 13:45:56;;;;;;;11.07;5.40;;;;;;;17.56;100.00;100448.59;4973489;28;20252;-70